createdAt,value
2019-01-08T00:01:21.347Z,57.09
2019-01-08T00:03:49.656Z,55.83
2019-01-08T00:06:17.932Z,57.04
2019-01-08T00:08:46.285Z,55.68
2019-01-08T00:11:14.590Z,54.95
2019-01-08T00:13:42.868Z,55.68
2019-01-08T00:16:11.147Z,56.17
2019-01-08T00:18:39.458Z,56.46
2019-01-08T00:21:07.742Z,56.41
2019-01-08T00:23:36.020Z,56.48
2019-01-08T00:26:04.397Z,56.06
2019-01-08T00:28:32.677Z,56.15
2019-01-08T00:31:00.961Z,55.23
2019-01-08T00:33:29.271Z,56.67
2019-01-08T00:35:57.617Z,56.65
2019-01-08T00:38:25.899Z,56.60
2019-01-08T00:40:54.226Z,56.28
2019-01-08T00:43:22.509Z,55.90
2019-01-08T00:45:50.801Z,55.94
2019-01-08T00:48:19.109Z,55.27
2019-01-08T00:50:47.386Z,54.35
2019-01-08T00:53:15.737Z,55.97
2019-01-08T00:55:44.186Z,56.40
2019-01-08T00:58:12.472Z,56.64
2019-01-08T01:00:40.758Z,56.25
2019-01-08T01:03:09.097Z,57.18
2019-01-08T01:05:37.449Z,57.33
2019-01-08T01:08:05.731Z,56.93
2019-01-08T01:10:34.048Z,55.89
2019-01-08T01:13:02.339Z,56.29
2019-01-08T01:15:30.620Z,57.10
2019-01-08T01:17:59.004Z,57.07
2019-01-08T01:20:27.299Z,55.18
2019-01-08T01:22:55.576Z,56.65
2019-01-08T01:25:23.944Z,58.30
2019-01-08T01:27:52.229Z,58.76
2019-01-08T01:30:20.510Z,59.41
2019-01-08T01:32:48.834Z,58.66
2019-01-08T01:35:17.106Z,57.14
2019-01-08T01:37:45.377Z,57.17
2019-01-08T01:40:13.697Z,58.30
2019-01-08T01:42:41.979Z,57.14
2019-01-08T01:45:10.272Z,57.93
2019-01-08T01:47:38.588Z,59.15
2019-01-08T01:50:06.864Z,59.39
2019-01-08T01:52:35.134Z,58.81
2019-01-08T01:55:03.530Z,58.88
2019-01-08T01:57:31.799Z,59.22
2019-01-08T02:00:00.174Z,56.94
2019-01-08T02:02:28.499Z,57.48
2019-01-08T02:04:56.772Z,56.45
2019-01-08T02:07:25.389Z,55.60
2019-01-08T02:09:53.692Z,57.95
2019-01-08T02:12:21.969Z,57.55
2019-01-08T02:14:50.311Z,56.16
2019-01-08T02:17:18.636Z,56.07
2019-01-08T02:19:46.935Z,58.29
2019-01-08T02:22:15.211Z,58.74
2019-01-08T02:24:43.581Z,58.17
2019-01-08T02:27:11.859Z,57.90
2019-01-08T02:29:40.143Z,57.78
2019-01-08T02:32:08.595Z,58.38
2019-01-08T02:34:36.871Z,57.76
2019-01-08T02:37:05.152Z,57.40
2019-01-08T02:39:33.472Z,57.19
2019-01-08T02:42:01.895Z,58.30
2019-01-08T02:44:30.243Z,57.86
2019-01-08T02:46:58.605Z,58.59
2019-01-08T02:49:26.883Z,57.24
2019-01-08T02:51:55.158Z,56.90
2019-01-08T02:54:23.589Z,55.56
2019-01-08T02:56:51.923Z,55.54
2019-01-08T02:59:25.057Z,55.02
2019-01-08T03:01:50.250Z,55.28
2019-01-08T03:04:18.524Z,56.99
2019-01-08T03:06:46.803Z,56.60
2019-01-08T03:09:15.128Z,56.93
2019-01-08T03:11:43.418Z,57.60
2019-01-08T03:14:11.704Z,58.31
2019-01-08T03:16:40.013Z,56.93
2019-01-08T03:19:08.366Z,56.15
2019-01-08T03:21:36.652Z,56.59
2019-01-08T03:24:04.983Z,57.78
2019-01-08T03:26:33.335Z,56.92
2019-01-08T03:29:01.620Z,59.06
2019-01-08T03:31:30.004Z,57.90
2019-01-08T03:33:58.283Z,57.58
2019-01-08T03:36:26.561Z,58.09
2019-01-08T03:38:54.883Z,57.55
2019-01-08T03:41:23.161Z,58.03
2019-01-08T03:43:51.446Z,56.99
2019-01-08T03:46:19.767Z,57.49
2019-01-08T03:48:48.041Z,57.90
2019-01-08T03:51:16.383Z,58.17
2019-01-08T03:53:44.767Z,57.79
2019-01-08T03:56:13.043Z,58.50
2019-01-08T03:58:41.321Z,58.78
2019-01-08T04:01:09.648Z,58.74
2019-01-08T04:03:38.061Z,57.26
2019-01-08T04:06:06.341Z,57.53
2019-01-08T04:08:34.671Z,58.05
2019-01-08T04:11:02.959Z,57.96
2019-01-08T04:13:31.239Z,57.86
2019-01-08T04:16:00.365Z,58.56
2019-01-08T04:18:28.723Z,58.52
2019-01-08T04:20:57.007Z,57.69
2019-01-08T04:23:25.390Z,57.25
2019-01-08T04:25:53.671Z,56.73
2019-01-08T04:28:21.945Z,57.32
2019-01-08T04:30:50.255Z,56.50
2019-01-08T04:33:18.532Z,56.74
2019-01-08T04:35:46.810Z,56.82
2019-01-08T04:38:16.035Z,58.31
2019-01-08T04:40:44.306Z,58.25
2019-01-08T04:43:12.602Z,57.97
2019-01-08T04:45:40.996Z,56.89
2019-01-08T04:48:09.271Z,57.41
2019-01-08T04:50:37.551Z,57.76
2019-01-08T04:53:05.853Z,58.37
2019-01-08T04:55:34.208Z,57.52
2019-01-08T04:58:02.479Z,56.76
2019-01-08T05:00:30.795Z,56.40
2019-01-08T05:02:59.140Z,56.58
2019-01-08T05:05:27.492Z,56.33
2019-01-08T05:07:55.815Z,57.47
2019-01-08T05:10:24.085Z,58.04
2019-01-08T05:12:52.365Z,58.71
2019-01-08T05:15:20.880Z,58.95
2019-01-08T05:17:49.234Z,57.52
2019-01-08T05:20:17.510Z,57.34
2019-01-08T05:22:47.120Z,57.28
2019-01-08T05:25:15.482Z,57.56
2019-01-08T05:27:43.840Z,57.45
2019-01-08T05:30:12.162Z,55.44
2019-01-08T05:32:40.459Z,56.38
2019-01-08T05:35:08.748Z,56.24
2019-01-08T05:37:37.064Z,56.24
2019-01-08T05:40:07.280Z,56.80
2019-01-08T05:42:35.558Z,58.38
2019-01-08T05:45:04.211Z,58.48
2019-01-08T05:47:32.567Z,58.60
2019-01-08T05:50:00.863Z,58.09
2019-01-08T05:52:29.175Z,57.18
2019-01-08T05:54:57.459Z,57.33
2019-01-08T05:57:25.747Z,58.57
2019-01-08T05:59:54.135Z,58.27
2019-01-08T06:02:22.414Z,58.18
2019-01-08T06:04:50.701Z,57.87
2019-01-08T06:07:19.088Z,58.52
2019-01-08T06:09:47.373Z,58.46
2019-01-08T06:12:15.648Z,59.10
2019-01-08T06:14:43.964Z,58.02
2019-01-08T06:17:12.242Z,57.50
2019-01-08T06:19:40.604Z,56.89
2019-01-08T06:22:08.985Z,56.63
2019-01-08T06:24:37.260Z,56.54
2019-01-08T06:27:05.544Z,57.03
2019-01-08T06:29:33.867Z,58.89
2019-01-08T06:32:02.159Z,57.86
2019-01-08T06:34:30.435Z,57.56
2019-01-08T06:36:58.751Z,57.72
2019-01-08T06:39:27.039Z,57.75
2019-01-08T06:41:55.349Z,58.30
2019-01-08T06:44:23.652Z,57.02
2019-01-08T06:46:51.932Z,57.61
2019-01-08T06:49:20.210Z,57.20
2019-01-08T06:51:48.522Z,56.42
2019-01-08T06:54:16.816Z,57.04
2019-01-08T06:56:45.091Z,56.42
2019-01-08T06:59:13.409Z,56.03
2019-01-08T07:01:41.699Z,56.44
2019-01-08T07:04:09.991Z,55.65
2019-01-08T07:06:38.316Z,56.30
2019-01-08T07:09:06.770Z,55.45
2019-01-08T07:11:35.055Z,54.77
2019-01-08T07:14:03.387Z,53.93
2019-01-08T07:16:31.736Z,55.89
2019-01-08T07:19:00.089Z,54.70
2019-01-08T07:21:28.520Z,55.50
2019-01-08T07:23:56.797Z,56.35
2019-01-08T07:26:25.084Z,55.98
2019-01-08T07:28:53.399Z,56.65
2019-01-08T07:31:21.678Z,55.91
2019-01-08T07:33:49.963Z,55.07
2019-01-08T07:36:18.297Z,55.69
2019-01-08T07:38:46.582Z,54.09
2019-01-08T07:41:14.858Z,55.62
2019-01-08T07:43:43.216Z,55.59
2019-01-08T07:46:11.630Z,55.06
2019-01-08T07:48:39.981Z,55.35
2019-01-08T07:51:08.315Z,55.67
2019-01-08T07:53:36.656Z,53.39
2019-01-08T07:56:04.932Z,53.81
2019-01-08T07:58:33.261Z,53.96
2019-01-08T08:01:01.551Z,53.81
2019-01-08T08:03:29.830Z,53.82
2019-01-08T08:05:58.152Z,54.70
2019-01-08T08:08:26.435Z,55.33
2019-01-08T08:10:54.718Z,55.96
2019-01-08T08:13:23.035Z,56.00
2019-01-08T08:15:51.385Z,56.20
2019-01-08T08:18:19.661Z,56.00
2019-01-08T08:20:47.984Z,55.27
2019-01-08T08:23:16.263Z,56.27
2019-01-08T08:25:44.542Z,56.24
2019-01-08T08:28:12.871Z,56.54
2019-01-08T08:30:41.162Z,54.79
2019-01-08T08:33:09.520Z,55.54
2019-01-08T08:35:37.841Z,55.12
2019-01-08T08:38:06.118Z,54.96
2019-01-08T08:40:34.406Z,54.44
2019-01-08T08:43:02.718Z,54.58
2019-01-08T08:45:31.000Z,53.62
2019-01-08T08:47:59.271Z,55.00
2019-01-08T08:50:27.588Z,55.03
2019-01-08T08:52:55.869Z,55.13
2019-01-08T08:55:24.145Z,54.79
2019-01-08T08:57:52.466Z,54.11
2019-01-08T09:00:20.758Z,53.54
2019-01-08T09:02:49.033Z,52.64
2019-01-08T09:05:17.365Z,53.59
2019-01-08T09:07:45.779Z,53.93
2019-01-08T09:10:14.142Z,53.69
2019-01-08T09:12:42.445Z,53.30
2019-01-08T09:15:10.811Z,52.71
2019-01-08T09:17:39.100Z,53.31
2019-01-08T09:20:09.563Z,54.48
2019-01-08T09:22:37.850Z,54.25
2019-01-08T09:25:06.971Z,54.25
2019-01-08T09:27:35.438Z,53.91
2019-01-08T09:30:04.451Z,54.45
2019-01-08T09:32:32.726Z,54.38
2019-01-08T09:35:01.045Z,53.34
2019-01-08T09:37:29.323Z,52.63
2019-01-08T09:39:57.607Z,51.53
2019-01-08T09:42:25.922Z,53.19
2019-01-08T09:44:54.268Z,52.26
2019-01-08T09:47:22.553Z,50.67
2019-01-08T09:49:50.883Z,49.39
2019-01-08T09:52:19.172Z,47.17
2019-01-08T09:54:47.455Z,47.07
2019-01-08T09:57:15.779Z,47.63
2019-01-08T09:59:44.052Z,47.01
2019-01-08T10:02:12.334Z,47.54
2019-01-08T10:04:40.664Z,46.35
2019-01-08T10:07:08.936Z,47.13
2019-01-08T10:09:37.224Z,47.33
2019-01-08T10:12:05.567Z,49.22
2019-01-08T10:14:33.846Z,49.54
2019-01-08T10:17:02.127Z,47.95
2019-01-08T10:19:30.438Z,47.78
2019-01-08T10:21:58.711Z,48.19
2019-01-08T10:24:27.003Z,48.06
2019-01-08T10:26:55.387Z,47.94
2019-01-08T10:29:23.669Z,49.46
2019-01-08T10:31:52.085Z,48.02
2019-01-08T10:34:20.395Z,46.00
2019-01-08T10:36:48.876Z,47.07
2019-01-08T10:39:17.168Z,46.74
2019-01-08T10:41:45.474Z,46.43
2019-01-08T10:44:13.890Z,47.42
2019-01-08T10:46:42.181Z,47.76
2019-01-08T10:49:10.503Z,46.85
2019-01-08T10:51:38.787Z,46.30
2019-01-08T10:54:07.056Z,46.63
2019-01-08T10:56:35.367Z,47.90
2019-01-08T10:59:07.663Z,47.78
2019-01-08T11:01:40.487Z,47.20
2019-01-08T11:04:03.759Z,46.87
2019-01-08T11:06:32.044Z,49.32
2019-01-08T11:09:00.429Z,49.74
2019-01-08T11:11:28.740Z,48.99
2019-01-08T11:13:57.029Z,49.08
2019-01-08T11:16:25.315Z,49.45
2019-01-08T11:18:53.729Z,49.42
2019-01-08T11:21:21.985Z,50.25
2019-01-08T11:23:50.329Z,49.47
2019-01-08T11:26:18.653Z,49.19
2019-01-08T11:28:46.939Z,50.77
2019-01-08T11:31:15.217Z,50.19
2019-01-08T11:33:43.538Z,48.47
2019-01-08T11:36:11.878Z,48.81
2019-01-08T11:38:40.227Z,48.46
2019-01-08T11:41:08.528Z,49.04
2019-01-08T11:43:36.814Z,48.84
2019-01-08T11:46:05.228Z,48.67
2019-01-08T11:48:33.613Z,48.93
2019-01-08T11:51:01.890Z,48.56
2019-01-08T11:53:30.247Z,47.15
2019-01-08T11:55:59.099Z,48.01
2019-01-08T11:58:27.494Z,47.97
2019-01-08T12:00:56.002Z,48.54
2019-01-08T12:03:24.518Z,48.08
2019-01-08T12:05:52.942Z,48.29
2019-01-08T12:08:21.215Z,47.25
2019-01-08T12:10:49.597Z,47.34
2019-01-08T12:13:18.086Z,48.11
2019-01-08T12:15:46.511Z,47.83
2019-01-08T12:18:15.042Z,48.15
2019-01-08T12:20:43.536Z,48.51
2019-01-08T12:23:12.015Z,47.86
2019-01-08T12:25:40.341Z,47.95
2019-01-08T12:28:08.607Z,47.42
2019-01-08T12:30:36.887Z,48.74
2019-01-08T12:33:05.203Z,47.93
2019-01-08T12:35:33.491Z,47.93
2019-01-08T12:38:02.003Z,47.63
2019-01-08T12:40:30.518Z,47.89
2019-01-08T12:42:58.799Z,47.05
2019-01-08T12:45:27.077Z,46.77
2019-01-08T12:47:55.597Z,46.65
2019-01-08T12:50:23.951Z,46.26
2019-01-08T12:52:52.433Z,47.65
2019-01-08T12:55:20.959Z,46.99
2019-01-08T12:57:49.251Z,47.03
2019-01-08T13:00:17.749Z,47.87
2019-01-08T13:02:46.286Z,46.93
2019-01-08T13:05:14.776Z,47.16
2019-01-08T13:07:43.055Z,46.87
2019-01-08T13:10:11.570Z,45.56
2019-01-08T13:12:40.061Z,45.65
2019-01-08T13:15:08.339Z,45.60
2019-01-08T13:17:36.866Z,43.79
2019-01-08T13:20:07.298Z,42.06
2019-01-08T13:22:35.797Z,42.68
2019-01-08T13:25:04.390Z,42.77
2019-01-08T13:27:32.883Z,42.92
2019-01-08T13:30:01.166Z,43.45
2019-01-08T13:32:29.686Z,42.19
2019-01-08T13:34:58.178Z,41.81
2019-01-08T13:37:26.677Z,43.56
2019-01-08T13:39:55.481Z,44.64
2019-01-08T13:42:24.073Z,46.66
2019-01-08T13:44:52.571Z,44.74
2019-01-08T13:47:20.981Z,43.36
2019-01-08T13:49:49.466Z,42.83
2019-01-08T13:52:17.948Z,42.14
2019-01-08T13:54:46.489Z,43.24
2019-01-08T13:57:14.976Z,43.36
2019-01-08T13:59:43.466Z,43.91
2019-01-08T14:02:11.994Z,43.23
2019-01-08T14:04:40.551Z,44.03
2019-01-08T14:07:09.051Z,44.52
2019-01-08T14:09:37.599Z,43.94
2019-01-08T14:12:06.105Z,44.07
2019-01-08T14:14:34.589Z,46.16
2019-01-08T14:17:03.131Z,45.85
2019-01-08T14:19:31.411Z,45.04
2019-01-08T14:21:59.900Z,45.03
2019-01-08T14:24:28.213Z,46.92
2019-01-08T14:26:56.705Z,46.55
2019-01-08T14:29:25.053Z,45.51
2019-01-08T14:31:53.584Z,45.96
2019-01-08T14:34:22.072Z,43.72
2019-01-08T14:36:50.590Z,43.51
2019-01-08T14:39:19.116Z,44.36
2019-01-08T14:41:47.612Z,45.42
2019-01-08T14:44:16.099Z,44.99
2019-01-08T14:46:44.564Z,44.60
2019-01-08T14:49:13.066Z,45.78
2019-01-08T14:51:41.420Z,45.87
2019-01-08T14:54:09.967Z,45.38
2019-01-08T14:56:38.320Z,45.66
2019-01-08T14:59:06.827Z,45.56
2019-01-08T15:01:35.358Z,45.40
2019-01-08T15:04:03.855Z,44.89
2019-01-08T15:06:32.402Z,44.58
2019-01-08T15:09:00.885Z,44.98
2019-01-08T15:11:29.374Z,45.23
2019-01-08T15:13:57.870Z,45.10
2019-01-08T15:16:26.393Z,45.73
2019-01-08T15:18:54.887Z,45.87
2019-01-08T15:21:23.377Z,46.76
2019-01-08T15:23:51.916Z,47.92
2019-01-08T15:26:20.418Z,47.73
2019-01-08T15:28:48.905Z,48.08
2019-01-08T15:31:17.450Z,46.96
2019-01-08T15:33:45.946Z,47.43
2019-01-08T15:36:14.444Z,47.87
2019-01-08T15:38:42.979Z,48.77
2019-01-08T15:41:11.471Z,48.52
2019-01-08T15:43:39.985Z,47.53
2019-01-08T15:46:08.521Z,47.65
2019-01-08T15:48:37.018Z,48.31
2019-01-08T15:51:05.508Z,47.68
2019-01-08T15:53:34.039Z,47.96
2019-01-08T15:56:02.540Z,46.86
2019-01-08T15:58:31.045Z,47.11
2019-01-08T16:00:59.595Z,49.03
2019-01-08T16:03:28.090Z,48.75
2019-01-08T16:05:56.583Z,47.96
2019-01-08T16:08:25.115Z,48.53
2019-01-08T16:10:53.617Z,48.86
2019-01-08T16:13:22.106Z,49.85
2019-01-08T16:15:50.655Z,49.14
2019-01-08T16:18:19.154Z,49.74
2019-01-08T16:20:47.651Z,49.31
2019-01-08T16:23:16.185Z,50.98
2019-01-08T16:25:44.689Z,49.90
2019-01-08T16:28:13.191Z,49.00
2019-01-08T16:30:41.716Z,50.36
2019-01-08T16:33:15.911Z,49.95
2019-01-08T16:35:40.431Z,50.05
2019-01-08T16:38:08.956Z,50.18
2019-01-08T16:40:37.448Z,49.59
2019-01-08T16:43:07.517Z,51.58
2019-01-08T16:45:36.053Z,49.90
2019-01-08T16:48:04.539Z,49.32
2019-01-08T16:50:33.024Z,50.91
2019-01-08T16:53:01.546Z,50.86
2019-01-08T16:55:30.028Z,50.72
2019-01-08T16:57:58.515Z,50.15
2019-01-08T17:00:27.066Z,49.27
2019-01-08T17:02:55.574Z,50.63
2019-01-08T17:05:24.071Z,50.87
2019-01-08T17:07:52.627Z,49.70
2019-01-08T17:10:21.148Z,50.25
2019-01-08T17:12:49.649Z,49.36
2019-01-08T17:15:18.199Z,49.41
2019-01-08T17:17:46.677Z,50.89
2019-01-08T17:20:15.175Z,49.94
2019-01-08T17:22:43.707Z,49.28
2019-01-08T17:25:12.290Z,50.18
2019-01-08T17:27:40.777Z,49.90
2019-01-08T17:30:15.261Z,49.90
2019-01-08T17:32:43.759Z,49.50
2019-01-08T17:35:12.263Z,49.47
2019-01-08T17:37:40.825Z,50.81
2019-01-08T17:40:09.330Z,49.19
2019-01-08T17:42:37.824Z,49.37
2019-01-08T17:45:09.250Z,47.89
2019-01-08T17:47:37.758Z,48.33
2019-01-08T17:50:06.640Z,47.74
2019-01-08T17:52:35.191Z,49.87
2019-01-08T17:55:03.809Z,47.53
2019-01-08T17:57:32.302Z,48.02
2019-01-08T18:00:00.850Z,47.14
2019-01-08T18:02:29.348Z,48.76
2019-01-08T18:04:57.847Z,50.71
2019-01-08T18:07:26.383Z,49.05
2019-01-08T18:09:54.895Z,48.99
2019-01-08T18:12:23.396Z,50.63
2019-01-08T18:14:51.934Z,49.47
2019-01-08T18:17:20.437Z,51.10
2019-01-08T18:19:48.940Z,51.02
2019-01-08T18:22:17.488Z,48.99
2019-01-08T18:24:45.998Z,48.13
2019-01-08T18:27:14.504Z,48.69
2019-01-08T18:29:43.025Z,49.98
2019-01-08T18:32:11.527Z,49.50
2019-01-08T18:34:40.049Z,50.20
2019-01-08T18:37:08.593Z,52.63
2019-01-08T18:39:37.085Z,51.78
2019-01-08T18:42:05.586Z,50.96
2019-01-08T18:44:34.124Z,50.27
2019-01-08T18:47:01.688Z,51.29
2019-01-08T18:49:29.270Z,50.50
2019-01-08T19:25:35.917Z,53.49
2019-01-08T19:28:04.402Z,53.25
2019-01-08T19:30:32.938Z,51.33
2019-01-08T19:33:01.472Z,50.97
2019-01-08T19:35:31.715Z,49.63
2019-01-08T19:38:00.172Z,50.98
2019-01-08T19:40:28.711Z,50.66
2019-01-08T19:42:57.195Z,52.62
2019-01-08T19:45:25.702Z,51.29
2019-01-08T19:47:54.250Z,51.50
2019-01-08T19:50:22.764Z,51.39
2019-01-08T19:52:51.271Z,51.86
2019-01-08T19:55:19.822Z,50.86
2019-01-08T19:57:48.326Z,50.88
2019-01-08T20:00:18.468Z,50.38
2019-01-08T20:02:46.999Z,51.78
2019-01-08T20:05:17.081Z,53.43
2019-01-08T20:07:45.575Z,55.89
2019-01-08T20:10:14.113Z,52.46
2019-01-08T20:12:42.613Z,51.84
2019-01-08T20:18:05.971Z,55.75
2019-01-08T20:20:34.527Z,56.44
2019-01-08T20:23:04.576Z,55.09
2019-01-08T20:25:33.075Z,55.85
2019-01-08T20:28:01.629Z,54.44
2019-01-08T20:30:30.156Z,54.72
2019-01-08T20:32:58.658Z,55.18
2019-01-08T20:35:27.265Z,54.91
2019-01-08T20:37:55.779Z,54.97
2019-01-08T20:40:25.858Z,53.44
2019-01-08T20:42:54.524Z,53.46
2019-01-08T20:45:23.060Z,52.07
2019-01-08T20:47:51.553Z,53.62
2019-01-08T20:50:20.232Z,52.44
2019-01-08T20:52:48.738Z,53.08
2019-01-08T20:55:17.233Z,53.43
2019-01-08T20:57:45.770Z,54.40
2019-01-08T21:00:14.363Z,54.22
2019-01-08T21:02:42.876Z,51.61
2019-01-08T21:05:11.428Z,52.17
2019-01-08T21:07:39.933Z,50.36
2019-01-08T21:10:08.733Z,52.20
2019-01-08T21:12:37.267Z,54.18
2019-01-08T21:15:06.362Z,51.67
2019-01-08T21:17:34.865Z,51.61
2019-01-08T21:20:03.395Z,53.58
2019-01-08T21:22:31.892Z,51.30
2019-01-08T21:25:00.383Z,52.41
2019-01-08T21:27:28.914Z,51.25
2019-01-08T21:29:57.417Z,51.09
2019-01-08T21:32:25.918Z,50.98
2019-01-08T21:34:54.455Z,50.38
2019-01-08T21:37:22.967Z,50.41
2019-01-08T21:39:51.450Z,50.59
2019-01-08T21:42:20.003Z,50.16
2019-01-08T21:44:48.506Z,51.40
2019-01-08T21:47:17.007Z,51.68
2019-01-08T21:49:45.527Z,51.88
2019-01-08T21:52:14.023Z,53.11
2019-01-08T21:54:42.391Z,52.50
2019-01-08T21:57:10.920Z,52.24
2019-01-08T21:59:39.349Z,52.79
2019-01-08T22:02:09.713Z,52.19
2019-01-08T22:04:38.125Z,50.35
2019-01-08T22:07:06.722Z,51.12
2019-01-08T22:09:35.192Z,51.26
2019-01-08T22:12:03.725Z,50.83
2019-01-08T22:14:32.071Z,51.49
2019-01-08T22:17:00.356Z,52.84
2019-01-08T22:19:28.771Z,53.32
2019-01-08T22:21:57.030Z,52.50
2019-01-08T22:24:25.381Z,51.79
2019-01-08T22:26:53.854Z,54.01
2019-01-08T22:29:22.215Z,53.26
2019-01-08T22:31:50.630Z,52.45
2019-01-08T22:34:19.097Z,53.54
2019-01-08T22:36:47.409Z,52.67
2019-01-08T22:39:15.692Z,52.96
2019-01-08T22:41:44.017Z,53.22
2019-01-08T22:44:12.304Z,53.67
2019-01-08T22:46:40.588Z,51.70
2019-01-08T22:49:08.917Z,52.04
2019-01-08T22:51:37.261Z,52.61
2019-01-08T22:54:05.617Z,51.04
2019-01-08T22:56:34.103Z,52.35
2019-01-08T22:59:02.366Z,51.81
2019-01-08T23:01:38.439Z,52.47
2019-01-08T23:04:07.900Z,55.94
2019-01-08T23:06:36.180Z,54.87
2019-01-08T23:09:06.500Z,53.01
2019-01-08T23:11:34.772Z,50.86
2019-01-08T23:14:03.060Z,53.71
2019-01-08T23:16:31.440Z,52.04
2019-01-08T23:18:59.801Z,52.42
2019-01-08T23:21:28.076Z,53.52
2019-01-08T23:23:56.397Z,52.70
2019-01-08T23:26:24.678Z,53.03
2019-01-08T23:28:53.034Z,53.33
2019-01-08T23:31:21.377Z,52.10
2019-01-08T23:33:49.667Z,51.41
2019-01-08T23:36:18.098Z,52.62
2019-01-08T23:38:46.412Z,51.63
2019-01-08T23:41:14.686Z,52.67
2019-01-08T23:43:42.963Z,52.41
2019-01-08T23:46:11.293Z,53.86
2019-01-08T23:48:39.583Z,52.31
2019-01-08T23:51:07.875Z,51.92
2019-01-08T23:53:36.392Z,52.28
2019-01-08T23:56:04.683Z,53.37
2019-01-08T23:58:32.962Z,51.80
